Time;durP1;ratioP1;P1;durP2;ratioP2;P2;SDS_P1;SDS_P2;PMS_P1;PMS_P2;Temp;Humidity;BMP_temperature;BMP_pressure;BME280_temperature;BME280_humidity;BME280_pressure;Samples;Min_cycle;Max_cycle;Signal;HPM_P1;HPM_P2
2023/01/08 00:02:04;;;;;;;7.82;4.78;;;7.10;86.20;;;;;;5054840;28;20071;-66
2023/01/08 00:04:31;;;;;;;11.40;5.75;;;7.10;86.30;;;;;;5055633;28;20064;-66
2023/01/08 00:07:00;;;;;;;10.57;6.13;;;7.10;86.40;;;;;;5037316;28;20064;-62
2023/01/08 00:09:28;;;;;;;12.02;5.95;;;7.10;86.30;;;;;;5037199;28;20049;-62
2023/01/08 00:11:54;;;;;;;10.93;5.15;;;7.10;86.50;;;;;;5024100;28;20515;-61
2023/01/08 00:14:22;;;;;;;8.63;5.50;;;7.10;86.50;;;;;;5039004;28;20053;-61
2023/01/08 00:16:50;;;;;;;9.35;5.03;;;7.10;86.50;;;;;;5032888;28;20076;-61
2023/01/08 00:19:18;;;;;;;8.55;4.63;;;7.10;86.70;;;;;;5034724;28;20090;-60
2023/01/08 00:21:45;;;;;;;7.88;4.40;;;7.10;86.80;;;;;;5036368;28;20045;-60
2023/01/08 00:24:12;;;;;;;8.60;4.50;;;7.10;86.70;;;;;;5036113;28;20064;-61
2023/01/08 00:26:40;;;;;;;8.70;4.30;;;7.20;86.90;;;;;;5035443;28;20053;-61
2023/01/08 00:29:07;;;;;;;9.65;4.70;;;7.20;86.90;;;;;;5038750;28;20041;-60
2023/01/08 00:31:34;;;;;;;10.55;4.88;;;7.30;87.10;;;;;;5039404;28;20128;-61
2023/01/08 00:34:01;;;;;;;8.40;5.00;;;7.30;86.90;;;;;;5038310;28;20060;-61
2023/01/08 00:36:29;;;;;;;8.45;4.65;;;7.40;87.20;;;;;;5038598;28;20059;-58
2023/01/08 00:38:58;;;;;;;9.68;4.22;;;7.40;87.20;;;;;;5037154;28;20060;-59
2023/01/08 00:41:25;;;;;;;7.30;4.00;;;7.40;87.30;;;;;;5038785;28;20053;-71
2023/01/08 00:43:52;;;;;;;7.03;4.28;;;7.40;87.20;;;;;;5040083;28;20496;-70
2023/01/08 00:46:19;;;;;;;7.82;4.25;;;7.50;87.10;;;;;;5040200;28;20405;-63
2023/01/08 00:48:46;;;;;;;7.65;3.95;;;7.50;87.30;;;;;;5040899;28;20060;-63
2023/01/08 00:51:13;;;;;;;6.38;3.50;;;7.50;87.30;;;;;;5038645;28;20060;-61
2023/01/08 00:53:41;;;;;;;7.97;3.35;;;7.60;87.10;;;;;;5041080;28;20067;-61
2023/01/08 00:56:09;;;;;;;7.05;3.70;;;7.60;87.00;;;;;;5039731;28;20408;-62
2023/01/08 00:58:38;;;;;;;6.65;3.13;;;7.60;87.20;;;;;;5039644;28;20411;-63
2023/01/08 01:01:10;;;;;;;8.90;3.55;;;7.60;87.70;;;;;;5037865;28;20045;-60
2023/01/08 01:03:37;;;;;;;6.78;3.33;;;7.70;87.50;;;;;;5038573;28;20056;-62
2023/01/08 01:06:05;;;;;;;7.25;3.75;;;7.60;87.60;;;;;;5030864;28;20128;-61
2023/01/08 01:08:32;;;;;;;6.43;3.40;;;7.70;87.40;;;;;;5038780;28;20048;-60
2023/01/08 01:11:00;;;;;;;7.95;3.65;;;7.70;87.80;;;;;;5039952;28;20043;-60
2023/01/08 01:13:28;;;;;;;11.10;4.00;;;7.70;87.70;;;;;;5041027;28;20052;-60
2023/01/08 01:15:59;;;;;;;6.80;3.55;;;7.60;87.80;;;;;;5039659;28;20056;-59
2023/01/08 01:18:26;;;;;;;6.20;3.40;;;7.70;87.60;;;;;;5039152;28;20053;-58
2023/01/08 01:20:53;;;;;;;6.00;3.38;;;7.70;87.80;;;;;;5038055;28;20127;-68
2023/01/08 01:23:20;;;;;;;5.90;3.28;;;7.70;87.70;;;;;;5041246;28;20143;-69
2023/01/08 01:25:47;;;;;;;6.72;3.38;;;7.80;87.50;;;;;;5050330;28;20064;-69
2023/01/08 01:28:16;;;;;;;7.35;3.38;;;7.80;87.70;;;;;;5049769;28;20056;-67
2023/01/08 01:30:42;;;;;;;6.65;3.42;;;7.80;87.60;;;;;;5048054;28;20115;-61
2023/01/08 01:33:09;;;;;;;6.10;2.92;;;7.90;87.70;;;;;;5040496;28;20044;-61
2023/01/08 01:35:36;;;;;;;6.57;3.55;;;7.90;87.70;;;;;;5049596;28;20044;-62
2023/01/08 01:38:03;;;;;;;7.78;3.20;;;7.90;87.70;;;;;;5048070;28;20041;-61
2023/01/08 01:40:30;;;;;;;5.63;2.80;;;7.90;87.70;;;;;;5048842;28;20052;-62
2023/01/08 01:42:57;;;;;;;6.65;3.42;;;8.00;87.70;;;;;;5038987;28;20053;-61
2023/01/08 01:45:27;;;;;;;5.30;2.80;;;8.00;87.70;;;;;;5040876;28;20095;-60
2023/01/08 01:47:58;;;;;;;5.65;3.03;;;8.00;87.70;;;;;;5037689;28;20041;-61
2023/01/08 01:50:32;;;;;;;5.40;2.80;;;8.00;87.60;;;;;;5039440;28;20663;-61
2023/01/08 01:53:02;;;;;;;6.00;3.10;;;7.90;87.80;;;;;;5039059;28;20052;-61
2023/01/08 01:55:31;;;;;;;6.28;3.10;;;8.00;88.00;;;;;;5037096;28;20049;-61
2023/01/08 01:58:03;;;;;;;5.38;2.63;;;7.90;88.20;;;;;;5041599;28;20403;-60
2023/01/08 02:00:32;;;;;;;5.07;2.97;;;8.00;88.00;;;;;;5041637;28;20053;-60
2023/01/08 02:03:00;;;;;;;5.38;2.95;;;8.00;88.10;;;;;;5038985;28;20049;-61
2023/01/08 02:05:33;;;;;;;6.28;2.72;;;8.00;88.10;;;;;;5040719;28;21117;-61
2023/01/08 02:08:06;;;;;;;4.95;2.78;;;8.00;88.10;;;;;;5033847;28;20041;-62
2023/01/08 02:10:42;;;;;;;6.32;3.45;;;8.00;88.00;;;;;;5039573;28;20044;-61
2023/01/08 02:13:14;;;;;;;6.32;3.10;;;8.00;88.10;;;;;;5047128;28;20052;-60
2023/01/08 02:15:51;;;;;;;6.82;3.08;;;8.10;88.20;;;;;;5047921;28;20414;-68
2023/01/08 02:18:20;;;;;;;5.30;2.78;;;8.10;88.20;;;;;;5032761;28;20045;-67
2023/01/08 02:20:54;;;;;;;5.82;2.90;;;8.10;88.20;;;;;;5048767;28;20079;-69
2023/01/08 02:23:28;;;;;;;6.15;3.35;;;8.10;88.30;;;;;;5037802;28;20515;-68
2023/01/08 02:26:15;;;;;;;8.32;3.45;;;8.10;88.30;;;;;;5039393;28;20055;-68
2023/01/08 02:28:47;;;;;;;7.80;3.60;;;8.10;88.20;;;;;;5033939;28;20131;-68
2023/01/08 02:31:15;;;;;;;8.45;3.60;;;8.10;88.40;;;;;;5038734;28;20057;-67
2023/01/08 02:33:42;;;;;;;7.95;3.70;;;8.10;88.40;;;;;;5036749;28;20095;-68
2023/01/08 02:36:29;;;;;;;5.63;3.13;;;8.10;88.30;;;;;;5036272;28;20049;-67
2023/01/08 02:39:06;;;;;;;7.57;3.42;;;8.10;88.60;;;;;;5030399;28;20111;-69
2023/01/08 02:41:47;;;;;;;5.95;3.20;;;8.00;88.60;;;;;;5048394;28;20059;-61
2023/01/08 02:44:20;;;;;;;6.43;2.90;;;8.10;88.70;;;;;;5046526;28;20048;-58
2023/01/08 02:46:49;;;;;;;6.20;3.50;;;8.10;88.60;;;;;;5047076;28;20047;-59
2023/01/08 02:49:18;;;;;;;6.13;2.70;;;8.10;88.50;;;;;;5046745;28;20057;-58
2023/01/08 02:51:49;;;;;;;5.30;2.65;;;8.10;88.30;;;;;;5045239;28;20115;-61
2023/01/08 02:54:19;;;;;;;5.85;3.10;;;8.20;88.40;;;;;;5047315;28;20049;-61
2023/01/08 02:56:57;;;;;;;5.35;2.92;;;8.20;88.50;;;;;;5046544;28;20476;-68
2023/01/08 02:59:25;;;;;;;6.35;2.80;;;8.20;88.50;;;;;;5052808;28;20041;-68
2023/01/08 03:01:53;;;;;;;5.70;2.80;;;8.20;88.60;;;;;;5049249;28;20486;-68
2023/01/08 03:04:23;;;;;;;5.30;2.60;;;8.30;88.60;;;;;;5042777;28;20413;-68
2023/01/08 03:06:51;;;;;;;3.70;2.10;;;8.30;88.50;;;;;;5049613;28;20045;-58
2023/01/08 03:09:19;;;;;;;4.00;2.03;;;8.40;88.30;;;;;;5050859;28;20078;-59
2023/01/08 03:11:54;;;;;;;4.50;2.00;;;8.40;88.10;;;;;;5047706;28;20048;-62
2023/01/08 03:14:28;;;;;;;4.28;1.85;;;8.50;88.00;;;;;;5043495;28;20045;-63
2023/01/08 03:16:58;;;;;;;3.75;2.00;;;8.60;87.90;;;;;;5050603;28;20049;-62
2023/01/08 03:19:31;;;;;;;4.30;2.00;;;8.60;87.80;;;;;;5049515;28;20290;-63
2023/01/08 03:22:00;;;;;;;4.75;2.15;;;8.60;87.80;;;;;;5047216;28;20041;-62
2023/01/08 03:24:33;;;;;;;5.18;1.85;;;8.60;87.70;;;;;;5046730;28;20073;-62
2023/01/08 03:27:05;;;;;;;5.35;2.10;;;8.70;87.70;;;;;;5049700;28;20044;-62
2023/01/08 03:29:34;;;;;;;4.40;1.90;;;8.70;87.80;;;;;;5048203;28;20438;-61
2023/01/08 03:32:04;;;;;;;4.65;2.00;;;8.70;87.90;;;;;;5039473;28;20602;-59
2023/01/08 03:34:33;;;;;;;3.60;1.95;;;8.70;87.90;;;;;;5038702;28;20056;-58
2023/01/08 03:37:02;;;;;;;4.15;2.10;;;8.80;88.00;;;;;;5033484;28;20052;-58
2023/01/08 03:39:32;;;;;;;4.13;1.77;;;8.80;88.10;;;;;;5033509;28;20646;-58
2023/01/08 03:42:06;;;;;;;3.60;2.00;;;8.80;88.20;;;;;;5038735;28;20049;-65
2023/01/08 03:44:33;;;;;;;5.32;2.28;;;8.80;88.30;;;;;;5039265;28;20063;-65
2023/01/08 03:47:00;;;;;;;4.60;2.20;;;8.80;88.40;;;;;;5037241;28;20049;-60
2023/01/08 03:49:29;;;;;;;4.47;2.20;;;8.70;88.40;;;;;;5039172;28;20933;-61
2023/01/08 03:51:56;;;;;;;4.95;2.20;;;8.80;88.60;;;;;;5037379;28;20228;-61
2023/01/08 03:54:27;;;;;;;6.03;2.35;;;8.80;88.70;;;;;;5037991;28;20042;-60
2023/01/08 03:56:54;;;;;;;5.65;2.08;;;8.80;88.80;;;;;;5031161;28;20049;-60
2023/01/08 03:59:24;;;;;;;4.78;2.08;;;8.80;88.90;;;;;;5041639;28;20049;-60
2023/01/08 04:01:51;;;;;;;4.22;2.17;;;8.80;88.80;;;;;;5031812;28;20045;-60
2023/01/08 04:04:19;;;;;;;3.80;2.10;;;8.80;88.90;;;;;;5037995;28;20044;-60
2023/01/08 04:06:46;;;;;;;3.40;1.90;;;8.80;89.00;;;;;;5042357;28;20049;-66
2023/01/08 04:09:13;;;;;;;4.47;2.15;;;8.80;89.10;;;;;;5042139;28;20053;-65
2023/01/08 04:11:40;;;;;;;3.95;2.28;;;8.80;89.10;;;;;;5041327;28;20046;-61
2023/01/08 04:14:07;;;;;;;4.05;2.15;;;8.80;89.30;;;;;;5041382;28;20049;-60
2023/01/08 04:16:35;;;;;;;4.00;2.13;;;8.80;89.50;;;;;;5041610;28;20049;-60
2023/01/08 04:19:02;;;;;;;4.97;2.47;;;8.80;89.40;;;;;;5051944;28;20052;-60
2023/01/08 04:21:29;;;;;;;4.65;2.40;;;8.80;89.90;;;;;;5050583;28;20045;-60
2023/01/08 04:23:56;;;;;;;3.90;2.00;;;8.80;89.80;;;;;;5049081;28;20048;-60
2023/01/08 04:26:22;;;;;;;5.25;2.38;;;8.80;89.80;;;;;;5049373;28;20056;-67
2023/01/08 04:28:49;;;;;;;6.03;2.13;;;8.80;89.70;;;;;;5050517;28;20049;-67
2023/01/08 04:31:16;;;;;;;3.95;2.20;;;8.80;89.80;;;;;;5054443;28;20049;-58
2023/01/08 04:33:44;;;;;;;3.40;1.73;;;8.80;89.90;;;;;;5051000;28;20059;-58
2023/01/08 04:36:11;;;;;;;4.75;2.25;;;8.80;89.90;;;;;;5049990;28;20049;-70
2023/01/08 04:38:38;;;;;;;4.95;2.08;;;8.80;90.00;;;;;;5048396;28;20115;-67
2023/01/08 04:41:05;;;;;;;4.35;1.92;;;8.80;89.90;;;;;;5052587;28;20040;-61
2023/01/08 04:43:33;;;;;;;4.00;2.10;;;8.80;90.00;;;;;;5040888;28;20428;-60
2023/01/08 04:46:00;;;;;;;4.57;1.98;;;8.80;89.70;;;;;;5034849;28;20492;-59
2023/01/08 04:48:29;;;;;;;4.78;1.80;;;8.80;90.00;;;;;;5035721;28;20049;-59
2023/01/08 04:50:59;;;;;;;3.75;1.80;;;8.80;90.00;;;;;;5040089;28;20052;-58
2023/01/08 04:53:26;;;;;;;3.13;1.85;;;8.80;89.90;;;;;;5039248;28;20099;-58
2023/01/08 04:55:54;;;;;;;3.85;1.90;;;8.80;89.90;;;;;;5039888;28;20044;-69
2023/01/08 04:58:21;;;;;;;4.05;2.08;;;8.80;89.70;;;;;;5038498;28;20056;-69
2023/01/08 05:00:48;;;;;;;3.38;1.80;;;8.80;89.80;;;;;;5042145;28;20401;-68
2023/01/08 05:03:15;;;;;;;3.70;1.67;;;8.80;89.80;;;;;;5039976;28;20041;-69
2023/01/08 05:05:42;;;;;;;3.88;2.13;;;8.80;89.90;;;;;;5041203;28;20496;-60
2023/01/08 05:08:10;;;;;;;4.07;1.90;;;8.80;89.90;;;;;;5040397;28;20049;-61
2023/01/08 05:10:37;;;;;;;4.63;1.90;;;8.80;89.80;;;;;;5039734;28;20057;-60
2023/01/08 05:13:04;;;;;;;3.88;2.05;;;8.80;89.90;;;;;;5041645;28;20473;-59
2023/01/08 05:15:31;;;;;;;3.17;1.67;;;8.80;90.00;;;;;;5041640;28;20064;-64
2023/01/08 05:17:59;;;;;;;3.78;2.05;;;8.80;90.00;;;;;;5039268;28;20056;-65
2023/01/08 05:20:26;;;;;;;3.53;1.98;;;8.80;90.10;;;;;;5039599;28;20051;-65
2023/01/08 05:22:53;;;;;;;3.30;1.80;;;8.80;90.00;;;;;;5039417;28;20049;-63
2023/01/08 05:25:22;;;;;;;4.40;1.73;;;8.70;90.20;;;;;;5042530;28;20049;-63
2023/01/08 05:27:49;;;;;;;3.83;1.70;;;8.80;90.10;;;;;;5038955;28;20120;-65
2023/01/08 05:30:16;;;;;;;5.50;2.10;;;8.80;90.30;;;;;;5041509;28;20059;-64
2023/01/08 05:32:43;;;;;;;4.65;1.95;;;8.70;90.20;;;;;;5041215;28;20124;-65
2023/01/08 05:35:10;;;;;;;4.70;2.08;;;8.70;90.30;;;;;;5041490;28;20556;-63
2023/01/08 05:37:38;;;;;;;3.97;1.88;;;8.80;90.50;;;;;;5042289;28;20049;-69
2023/01/08 05:40:05;;;;;;;2.88;1.77;;;8.70;90.30;;;;;;5040505;28;20050;-68
2023/01/08 05:42:35;;;;;;;4.20;2.00;;;8.70;90.50;;;;;;5044395;28;20045;-61
2023/01/08 05:45:03;;;;;;;4.70;1.95;;;8.70;90.50;;;;;;5049887;28;20071;-60
2023/01/08 05:47:31;;;;;;;4.53;1.90;;;8.70;90.60;;;;;;5049359;28;20064;-61
2023/01/08 05:49:58;;;;;;;3.95;2.20;;;8.70;90.50;;;;;;5038292;28;20045;-61
2023/01/08 05:52:25;;;;;;;4.60;2.20;;;8.70;90.50;;;;;;5039720;28;20048;-62
2023/01/08 05:54:52;;;;;;;5.55;2.00;;;8.80;90.60;;;;;;5040195;28;20045;-61
2023/01/08 05:57:19;;;;;;;4.53;2.13;;;8.70;90.60;;;;;;5041538;28;20119;-61
2023/01/08 05:59:47;;;;;;;4.25;2.20;;;8.70;90.70;;;;;;5038471;28;20487;-61
2023/01/08 06:02:14;;;;;;;5.00;2.15;;;8.70;90.50;;;;;;5039230;28;20041;-61
2023/01/08 06:04:41;;;;;;;4.10;2.17;;;8.70;90.20;;;;;;5038081;28;20083;-62
2023/01/08 06:07:09;;;;;;;4.25;2.05;;;8.80;90.60;;;;;;5039965;28;20041;-62
2023/01/08 06:09:36;;;;;;;3.83;2.03;;;8.80;90.40;;;;;;5038875;28;20045;-62
2023/01/08 06:12:02;;;;;;;4.22;1.70;;;8.70;90.30;;;;;;5050146;28;20079;-62
2023/01/08 06:14:29;;;;;;;4.90;1.77;;;8.80;90.20;;;;;;5045932;28;20049;-63
2023/01/08 06:16:58;;;;;;;3.35;1.73;;;8.80;90.30;;;;;;5050075;28;20063;-58
2023/01/08 06:19:26;;;;;;;3.88;1.85;;;8.80;90.20;;;;;;5052018;28;20048;-59
2023/01/08 06:21:53;;;;;;;3.53;1.90;;;8.80;90.60;;;;;;5047452;28;20044;-61
2023/01/08 06:24:19;;;;;;;4.85;1.75;;;8.80;90.70;;;;;;5047249;28;20060;-59
2023/01/08 06:26:46;;;;;;;4.53;2.20;;;8.80;90.40;;;;;;5045123;28;20045;-60
2023/01/08 06:29:13;;;;;;;4.05;1.85;;;8.80;90.20;;;;;;5049391;28;20037;-60
2023/01/08 06:31:40;;;;;;;4.15;2.00;;;8.80;90.20;;;;;;5039117;28;20500;-60
2023/01/08 06:34:08;;;;;;;3.38;1.63;;;8.80;90.20;;;;;;5050898;28;20041;-60
2023/01/08 06:36:35;;;;;;;3.78;1.90;;;8.80;89.90;;;;;;5051324;28;20045;-60
2023/01/08 06:39:02;;;;;;;2.83;1.60;;;8.80;90.00;;;;;;5046621;28;20071;-61
2023/01/08 06:41:29;;;;;;;3.95;1.92;;;8.80;90.10;;;;;;5039417;28;20052;-59
2023/01/08 06:43:56;;;;;;;2.83;1.50;;;8.80;90.20;;;;;;5040328;28;20130;-60
2023/01/08 06:46:22;;;;;;;3.28;1.60;;;8.80;90.00;;;;;;5039169;28;20555;-65
2023/01/08 06:48:49;;;;;;;3.25;1.42;;;8.80;89.80;;;;;;5039481;28;20045;-65
2023/01/08 06:51:17;;;;;;;3.58;1.90;;;8.80;89.80;;;;;;5031472;28;20049;-65
2023/01/08 06:53:47;;;;;;;4.68;1.60;;;8.80;89.80;;;;;;5039121;28;20053;-64
2023/01/08 06:56:14;;;;;;;3.28;1.73;;;8.80;89.90;;;;;;5039077;28;20128;-65
2023/01/08 06:58:41;;;;;;;2.90;1.60;;;8.80;89.90;;;;;;5040508;28;20037;-65
2023/01/08 07:01:12;;;;;;;2.58;1.42;;;8.80;89.80;;;;;;5042253;28;20052;-60
2023/01/08 07:03:39;;;;;;;3.65;1.70;;;8.70;89.70;;;;;;5038259;28;20049;-60
2023/01/08 07:06:13;;;;;;;2.75;1.40;;;8.80;89.50;;;;;;5038815;28;20052;-60
2023/01/08 07:08:41;;;;;;;2.30;1.30;;;8.70;89.40;;;;;;5032059;28;21460;-60
2023/01/08 07:11:08;;;;;;;2.53;1.23;;;8.70;89.30;;;;;;5038014;28;20045;-60
2023/01/08 07:13:35;;;;;;;2.13;1.00;;;8.80;89.40;;;;;;5039474;28;20053;-59
2023/01/08 07:16:06;;;;;;;2.50;1.15;;;8.80;89.40;;;;;;5049007;28;20040;-65
2023/01/08 07:18:33;;;;;;;2.95;1.42;;;8.70;89.40;;;;;;5042519;28;20168;-65
2023/01/08 07:21:00;;;;;;;3.13;1.30;;;8.80;89.40;;;;;;5050851;28;20586;-69
2023/01/08 07:23:30;;;;;;;2.92;1.33;;;8.70;89.40;;;;;;5051392;28;20048;-69
2023/01/08 07:26:01;;;;;;;2.97;1.35;;;8.70;89.30;;;;;;5043682;28;20060;-60
2023/01/08 07:28:32;;;;;;;4.38;1.65;;;8.70;89.40;;;;;;5048472;28;20052;-60
2023/01/08 07:31:03;;;;;;;3.97;1.63;;;8.70;89.30;;;;;;5051317;28;20059;-64
2023/01/08 07:33:30;;;;;;;3.30;1.50;;;8.70;89.10;;;;;;5049825;28;20068;-64
2023/01/08 07:35:57;;;;;;;2.42;1.50;;;8.80;89.30;;;;;;5036858;28;20065;-59
2023/01/08 07:38:24;;;;;;;2.50;1.40;;;8.70;89.10;;;;;;5041569;28;20049;-60
2023/01/08 07:40:51;;;;;;;3.30;1.50;;;8.80;89.20;;;;;;5041705;28;20056;-60
2023/01/08 07:43:20;;;;;;;3.28;1.63;;;8.70;89.30;;;;;;5041910;28;20080;-60
2023/01/08 07:45:47;;;;;;;3.42;1.58;;;8.80;89.20;;;;;;5040720;28;20056;-69
2023/01/08 07:48:15;;;;;;;3.25;1.50;;;8.70;89.10;;;;;;5040539;28;20080;-69
2023/01/08 07:50:43;;;;;;;3.63;1.63;;;8.80;89.20;;;;;;5041550;28;20064;-68
2023/01/08 07:53:11;;;;;;;2.90;1.48;;;8.80;89.30;;;;;;5043242;28;20050;-67
2023/01/08 07:55:38;;;;;;;4.70;1.42;;;8.70;89.30;;;;;;5042214;28;20056;-67
2023/01/08 07:58:09;;;;;;;2.42;1.17;;;8.70;89.50;;;;;;5038621;28;20056;-68
2023/01/08 08:00:38;;;;;;;3.35;1.30;;;8.70;89.20;;;;;;5042448;28;20048;-63
2023/01/08 08:03:06;;;;;;;1.85;1.25;;;8.70;89.20;;;;;;5042042;28;20159;-68
2023/01/08 08:05:34;;;;;;;4.07;1.50;;;8.70;89.40;;;;;;5043163;28;20511;-67
2023/01/08 08:08:01;;;;;;;4.18;1.50;;;8.70;89.60;;;;;;5043276;28;20069;-68
2023/01/08 08:10:28;;;;;;;2.88;1.40;;;8.70;89.30;;;;;;5043456;28;20053;-68
2023/01/08 08:12:55;;;;;;;2.38;1.17;;;8.70;89.30;;;;;;5044076;28;20056;-69
2023/01/08 08:15:22;;;;;;;2.75;1.05;;;8.70;89.40;;;;;;5039960;28;20454;-66
2023/01/08 08:17:51;;;;;;;2.55;1.08;;;8.70;89.40;;;;;;5040417;28;20488;-66
2023/01/08 08:20:17;;;;;;;2.75;1.20;;;8.70;89.50;;;;;;5043994;28;20033;-68
2023/01/08 08:22:45;;;;;;;1.83;1.00;;;8.70;89.30;;;;;;5040250;28;20061;-68
2023/01/08 08:25:13;;;;;;;2.17;1.30;;;8.70;89.10;;;;;;5043492;28;20045;-66
2023/01/08 08:27:41;;;;;;;2.67;1.27;;;8.80;89.10;;;;;;5039723;28;20049;-68
2023/01/08 08:30:10;;;;;;;2.67;1.38;;;8.80;89.00;;;;;;5039699;28;20049;-69
2023/01/08 08:32:37;;;;;;;2.47;1.35;;;8.80;89.20;;;;;;5043261;28;20051;-68
2023/01/08 08:35:06;;;;;;;2.13;1.17;;;8.80;89.20;;;;;;5039796;28;20044;-68
2023/01/08 08:37:34;;;;;;;3.00;1.23;;;8.80;89.10;;;;;;5039715;28;20045;-69
2023/01/08 08:40:01;;;;;;;2.75;1.20;;;8.80;89.50;;;;;;5041809;28;20038;-69
2023/01/08 08:42:28;;;;;;;2.20;1.20;;;8.90;89.20;;;;;;5036648;28;20064;-68
2023/01/08 08:44:55;;;;;;;2.38;1.20;;;8.80;89.30;;;;;;5035598;28;20068;-68
2023/01/08 08:47:22;;;;;;;2.58;1.20;;;8.80;89.20;;;;;;5041716;28;20061;-68
2023/01/08 08:49:49;;;;;;;2.30;1.27;;;8.90;89.40;;;;;;5037717;28;20058;-68
2023/01/08 08:52:17;;;;;;;2.42;1.50;;;8.90;89.30;;;;;;5046493;28;20095;-69
2023/01/08 08:54:45;;;;;;;3.10;1.20;;;8.80;89.40;;;;;;5051614;28;20048;-68
2023/01/08 08:57:12;;;;;;;3.38;1.55;;;8.90;89.30;;;;;;5047234;28;20049;-68
2023/01/08 08:59:39;;;;;;;2.85;1.30;;;8.80;89.10;;;;;;5044007;28;20084;-69
2023/01/08 09:02:07;;;;;;;3.33;1.40;;;8.80;89.10;;;;;;5051194;28;20044;-64
2023/01/08 09:04:34;;;;;;;3.28;1.38;;;8.80;89.50;;;;;;5050116;28;20132;-63
2023/01/08 09:07:02;;;;;;;2.45;1.40;;;8.80;89.10;;;;;;5047398;28;20624;-64
2023/01/08 09:09:31;;;;;;;2.85;1.45;;;8.80;89.30;;;;;;5038220;28;20050;-63
2023/01/08 09:11:58;;;;;;;3.75;1.52;;;8.90;89.20;;;;;;5038284;28;20048;-63
2023/01/08 09:14:25;;;;;;;2.92;1.23;;;8.90;89.50;;;;;;5039509;28;20144;-65
2023/01/08 09:16:52;;;;;;;4.00;1.67;;;8.90;89.30;;;;;;5040302;28;20049;-68
2023/01/08 09:19:21;;;;;;;1.70;0.90;;;8.90;89.20;;;;;;5038073;28;20049;-68
2023/01/08 09:21:49;;;;;;;3.83;1.20;;;8.90;89.00;;;;;;5040085;28;20041;-68
2023/01/08 09:24:16;;;;;;;2.20;1.00;;;8.90;89.50;;;;;;5038914;28;20053;-68
2023/01/08 09:26:45;;;;;;;2.13;1.08;;;8.90;89.60;;;;;;5038974;28;20051;-68
2023/01/08 09:29:12;;;;;;;3.08;1.63;;;8.90;89.40;;;;;;5041881;28;20041;-67
2023/01/08 09:31:39;;;;;;;3.63;1.45;;;8.90;89.70;;;;;;5040324;28;20103;-66
2023/01/08 09:34:06;;;;;;;2.22;1.23;;;8.90;89.40;;;;;;5046702;28;20049;-68
2023/01/08 09:36:33;;;;;;;4.03;1.58;;;8.90;89.20;;;;;;5052764;28;20135;-69
2023/01/08 09:39:00;;;;;;;2.40;1.00;;;8.90;89.50;;;;;;5047477;28;20045;-69
2023/01/08 09:41:32;;;;;;;2.17;1.10;;;8.90;89.20;;;;;;5047824;28;20553;-67
2023/01/08 09:44:05;;;;;;;2.45;1.00;;;8.90;89.30;;;;;;5050994;28;20045;-68
2023/01/08 09:46:32;;;;;;;3.53;1.30;;;8.90;89.40;;;;;;5047989;28;20053;-69
2023/01/08 09:49:04;;;;;;;3.40;1.15;;;8.90;89.30;;;;;;5036875;28;20122;-66
2023/01/08 09:51:35;;;;;;;4.03;1.85;;;8.90;89.40;;;;;;5041199;28;20056;-67
2023/01/08 09:54:04;;;;;;;3.30;1.38;;;9.00;89.60;;;;;;5054621;28;20049;-68
2023/01/08 09:56:33;;;;;;;2.78;1.33;;;8.90;89.20;;;;;;5063186;28;20053;-68
2023/01/08 09:59:03;;;;;;;2.90;1.30;;;8.90;89.40;;;;;;5056669;28;20049;-69
2023/01/08 10:01:34;;;;;;;2.33;1.15;;;8.90;89.20;;;;;;5047252;28;20040;-68
2023/01/08 10:04:05;;;;;;;4.00;1.35;;;9.00;89.70;;;;;;5048452;28;20058;-67
2023/01/08 10:06:33;;;;;;;4.28;1.10;;;9.00;89.50;;;;;;5044154;28;20571;-62
2023/01/08 10:09:00;;;;;;;3.08;1.20;;;9.00;89.80;;;;;;5040378;28;20056;-62
2023/01/08 10:11:35;;;;;;;;;;;9.00;89.50;;;;;;5040796;28;20052;-61
2023/01/08 10:14:04;;;;;;;2.63;1.25;;;9.00;89.40;;;;;;5037861;28;19928;-62
2023/01/08 10:16:36;;;;;;;2.97;1.05;;;9.00;89.80;;;;;;5037760;28;20041;-63
2023/01/08 10:19:04;;;;;;;2.42;1.20;;;9.00;89.80;;;;;;5042694;28;20072;-63
2023/01/08 10:21:36;;;;;;;2.63;1.00;;;9.00;89.60;;;;;;5053709;28;20046;-64
2023/01/08 10:24:04;;;;;;;3.33;1.13;;;9.00;89.30;;;;;;5036733;28;20503;-62
2023/01/08 10:26:35;;;;;;;2.15;1.05;;;9.00;89.30;;;;;;5037588;28;20045;-61
2023/01/08 10:29:13;;;;;;;2.60;1.00;;;9.00;89.50;;;;;;5041752;28;20057;-61
2023/01/08 10:31:48;;;;;;;2.03;1.00;;;9.00;89.80;;;;;;5044049;28;20045;-61
2023/01/08 10:34:27;;;;;;;1.98;1.00;;;9.10;90.00;;;;;;5047263;28;20041;-62
2023/01/08 10:36:54;;;;;;;2.78;1.10;;;9.10;90.00;;;;;;5045904;28;20041;-63
2023/01/08 10:39:25;;;;;;;3.13;1.27;;;9.20;90.00;;;;;;5045515;28;20057;-63
2023/01/08 10:41:55;;;;;;;2.25;1.08;;;9.20;89.90;;;;;;5053731;28;20487;-62
2023/01/08 10:44:25;;;;;;;3.30;1.23;;;9.20;90.10;;;;;;5043010;28;20049;-62
2023/01/08 10:46:55;;;;;;;1.98;0.77;;;9.20;89.70;;;;;;5046418;28;20053;-58
2023/01/08 10:49:30;;;;;;;3.55;1.10;;;9.20;89.50;;;;;;5049735;28;20052;-57
2023/01/08 10:51:58;;;;;;;2.92;1.10;;;9.20;89.80;;;;;;5038218;28;20143;-67
2023/01/08 10:54:32;;;;;;;2.22;1.00;;;9.20;89.60;;;;;;5040895;28;20488;-67
2023/01/08 10:56:59;;;;;;;1.80;1.00;;;9.20;89.70;;;;;;5040670;28;20042;-58
2023/01/08 10:59:27;;;;;;;2.58;1.13;;;9.20;89.70;;;;;;5035028;28;20057;-57
2023/01/08 11:01:57;;;;;;;2.75;1.13;;;9.30;89.80;;;;;;5035835;28;20059;-58
2023/01/08 11:04:29;;;;;;;3.10;1.30;;;9.20;89.80;;;;;;5033947;28;20048;-68
2023/01/08 11:06:59;;;;;;;2.88;1.10;;;9.20;89.70;;;;;;5035582;28;20036;-66
2023/01/08 11:09:31;;;;;;;2.30;1.10;;;9.20;89.80;;;;;;5038557;28;20045;-66
2023/01/08 11:11:59;;;;;;;2.90;1.27;;;9.20;89.70;;;;;;5038594;28;20057;-66
2023/01/08 11:14:33;;;;;;;2.88;1.20;;;9.30;89.70;;;;;;5034496;28;20044;-67
2023/01/08 11:17:01;;;;;;;2.38;1.00;;;9.30;89.50;;;;;;5038149;28;20407;-60
2023/01/08 11:19:30;;;;;;;2.92;1.10;;;9.20;89.80;;;;;;5039722;28;20041;-60
2023/01/08 11:21:59;;;;;;;2.05;0.98;;;9.20;89.80;;;;;;5039600;28;20057;-61
2023/01/08 11:24:32;;;;;;;2.88;1.55;;;9.20;89.60;;;;;;5040869;28;20049;-59
2023/01/08 11:27:04;;;;;;;3.35;1.23;;;9.20;89.40;;;;;;5040264;28;20103;-59
2023/01/08 11:29:39;;;;;;;3.70;1.20;;;9.30;89.80;;;;;;5040845;28;20143;-61
2023/01/08 11:32:24;;;;;;;3.08;1.40;;;9.20;89.30;;;;;;5039047;28;20041;-57
2023/01/08 11:34:56;;;;;;;4.15;1.60;;;9.30;89.60;;;;;;5040226;28;20059;-58
2023/01/08 11:37:26;;;;;;;6.53;1.90;;;9.30;89.50;;;;;;5039911;28;20057;-58
2023/01/08 11:39:54;;;;;;;4.45;1.80;;;9.30;89.40;;;;;;5035543;28;20068;-58
2023/01/08 11:42:41;;;;;;;5.22;2.03;;;9.40;89.50;;;;;;5038021;28;20050;-58
2023/01/08 11:45:21;;;;;;;6.07;2.28;;;9.40;89.60;;;;;;5049366;28;20060;-57
2023/01/08 11:48:06;;;;;;;7.13;3.08;;;9.40;89.60;;;;;;5046947;28;20051;-59
2023/01/08 11:50:40;;;;;;;9.85;3.72;;;9.40;89.20;;;;;;5049876;28;20052;-68
2023/01/08 11:53:20;;;;;;;7.22;3.17;;;9.40;89.20;;;;;;5046602;28;20049;-68
2023/01/08 11:55:56;;;;;;;7.95;2.78;;;9.50;89.30;;;;;;5037193;28;20049;-63
2023/01/08 11:58:32;;;;;;;5.25;2.15;;;9.60;89.30;;;;;;5037265;28;20060;-64
2023/01/08 12:01:16;;;;;;;5.70;2.20;;;9.60;89.30;;;;;;5036024;28;20053;-63
2023/01/08 12:03:46;;;;;;;5.53;2.28;;;9.70;89.30;;;;;;5035267;28;20059;-64
2023/01/08 12:06:26;;;;;;;5.50;2.17;;;9.70;89.20;;;;;;5036082;28;20050;-59
2023/01/08 12:09:04;;;;;;;4.77;1.83;;;9.70;89.20;;;;;;5034812;28;20519;-58
2023/01/08 12:11:36;;;;;;;3.83;1.70;;;9.70;89.00;;;;;;5031837;28;20048;-57
2023/01/08 12:14:29;;;;;;;4.10;1.80;;;9.70;89.10;;;;;;5036740;28;20122;-59
2023/01/08 12:17:07;;;;;;;4.28;1.95;;;9.70;88.90;;;;;;5036479;28;20567;-61
2023/01/08 12:19:51;;;;;;;5.05;2.17;;;9.70;88.90;;;;;;5036513;28;20579;-60
2023/01/08 12:22:34;;;;;;;4.40;2.10;;;9.70;88.80;;;;;;5040442;28;20103;-59
2023/01/08 12:25:31;;;;;;;5.78;2.40;;;9.80;89.00;;;;;;5058551;28;20052;-61
2023/01/08 12:28:15;;;;;;;5.55;2.50;;;9.70;89.00;;;;;;5053713;28;20040;-61
2023/01/08 12:30:54;;;;;;;7.20;2.90;;;9.80;89.00;;;;;;5050851;28;20037;-61
2023/01/08 12:33:33;;;;;;;6.22;2.97;;;9.90;88.90;;;;;;5041824;28;20061;-60
2023/01/08 12:36:05;;;;;;;5.00;2.08;;;9.90;88.80;;;;;;5040729;28;20049;-60
2023/01/08 12:38:35;;;;;;;4.63;2.17;;;9.90;88.70;;;;;;5039718;28;20120;-60
2023/01/08 12:41:04;;;;;;;;;;;9.90;88.80;;;;;;5049738;28;20044;-61
2023/01/08 12:43:37;;;;;;;5.15;2.30;;;9.90;88.70;;;;;;5044530;28;19928;-61
2023/01/08 12:46:06;;;;;;;4.45;2.08;;;9.90;88.70;;;;;;5052455;28;20081;-64
2023/01/08 12:48:35;;;;;;;4.55;1.77;;;9.90;88.70;;;;;;5032508;28;20059;-63
2023/01/08 12:51:07;;;;;;;4.23;1.83;;;9.90;88.70;;;;;;5048764;28;20045;-60
2023/01/08 12:53:41;;;;;;;5.32;1.70;;;9.80;88.60;;;;;;5038166;28;20518;-60
2023/01/08 12:56:14;;;;;;;3.47;1.70;;;9.90;88.50;;;;;;5040101;28;20947;-67
2023/01/08 12:58:59;;;;;;;4.07;1.50;;;9.90;88.50;;;;;;5038478;28;20057;-67
2023/01/08 13:01:35;;;;;;;3.95;1.30;;;9.90;88.50;;;;;;5037774;28;20049;-59
2023/01/08 13:04:05;;;;;;;3.47;1.60;;;9.90;88.40;;;;;;5048009;28;20049;-61
2023/01/08 13:06:32;;;;;;;3.60;1.60;;;10.00;88.20;;;;;;5042316;28;20049;-64
2023/01/08 13:09:00;;;;;;;3.25;1.60;;;10.00;88.20;;;;;;5050175;28;20049;-64
2023/01/08 13:11:30;;;;;;;3.00;1.27;;;10.00;88.10;;;;;;5050728;28;20674;-66